EGHHEGNM

Guest
Details From EGHH - Bournemouth
To EGNM - Leeds Bradford
Flight Number -
Tags decoded
Created
Modified
Stats Distance 225 nm / 416 km
Max Altitude 0 ft / 0 m
Waypoints 6
Social Downloads 1
Likes 0
Share VATSIM

Download

Looking for another format? Having issues loading an existing format? Contact us
Advertisement - Login to hide

Notes

Requested: EGHH DIKAS UN864 NITON UP17 BARTN EGNM Unmatched points: UP17

Route

EGHH DIKAS UN864 NITON BARTN EGNM

ID Type Via Altitude Latitude Longitude Leg Dist Tot Dist Heading (true) Name
O EGHH APT - 0 ft / 0 m 50.78007˚ -1.84253˚ - 0 nm - Bournemouth
DIKAS FIX - 0 ft / 0 m 51.77694˚ -3.25917˚ 80 nm 80 nm 319° / 318° -
TOPRO FIX UN864 (AWY-HI) 0 ft / 0 m 51.91167˚ -3.24917˚ 8 nm 88 nm 3° / 3° -
NITON FIX UN864 (AWY-HI) 0 ft / 0 m 52.55333˚ -3.20028˚ 38 nm 126 nm 3° / 3° -
BARTN FIX - 0 ft / 0 m 53.47056˚ -2.42806˚ 61 nm 188 nm 27° / 27° -
O EGNM APT - 0 ft / 0 m 53.86603˚ -1.66078˚ 36 nm 224 nm 49° / 49° Leeds Bradford

Altitude Profile

Advertisement - Login to hide

Weather


0- 5 10 15 20 25 30 35+ Temperature / ° C

Clouds and Precipitation
Forecast for 2017-12-11 12:00 UTC. Updated 12 minutes ago

Ground ~20,000 ft ~40,000 ft Winds

EGHH

Details ICAO EGHH (BOH)
Name Bournemouth
Region United Kingdom
Timezone Europe/London (UTC+0.0)
Stats Elevation 38 ft / 12 m (AMSL)
Location 50.780065° -1.842533°
Runways 1
Magnetic Variation 0.963° W

METAR

EGHH 111120Z 01017KT 9999 -RA BKN011 BKN017 03/02 Q0982

Decode

TAF

Not found

Departure Runways

ID Width Length Bearing (true) Bearing (mag) Surface Threshold Offset Overrun Length
08 151 ft / 46 m 7,440 ft / 2,268 m 75.27° 76.23° Asphalt 1,424 ft / 434 m 0 ft / 0 m
26 151 ft / 46 m 7,440 ft / 2,268 m 255.29° 256.25° Asphalt 0 ft / 0 m 328 ft / 100 m

EGNM

Details ICAO EGNM (LBA)
Name Leeds Bradford
Region United Kingdom
Timezone Europe/London (UTC+0.0)
Stats Elevation 681 ft / 208 m (AMSL)
Location 53.866027° -1.660778°
Runways 1
Magnetic Variation 1.300° W

METAR

EGNM 111120Z VRB03KT CAVOK M00/M05 Q0988

Decode

TAF

TAF TAF EGNM 110459Z 1106/1206 34006KT 9999 FEW020

Decode

Destination Runways

ID Width Length Bearing (true) Bearing (mag) Surface Threshold Offset Overrun Length
14 151 ft / 46 m 7,377 ft / 2,248 m 137.79° 139.09° Concrete 1,024 ft / 312 m 46 ft / 14 m
32 151 ft / 46 m 7,377 ft / 2,248 m 317.81° 319.11° Concrete 899 ft / 274 m 49 ft / 15 m

Approach Navaids

Runway Type Ident Frequency Range Bearing (true) Bearing (mag) Slope Elevation
14 Localiser ILBF 110.90 MHz 18 nm / 33 km 137.73° 139.03° - 681 ft / 208 m (AMSL)
14 Glidescope ILBF 110.90 MHz 10 nm / 19 km 137.80° 139.10° 3.50° 681 ft / 208 m (AMSL)
14 DME ILBF 110.90 MHz 18 nm / 33 km - - - 681 ft / 208 m (AMSL)
32 Localiser ILF 110.90 MHz 18 nm / 33 km 317.80° 319.10° - 681 ft / 208 m (AMSL)
32 Glidescope ILF 110.90 MHz 10 nm / 19 km 317.80° 319.10° 3.00° 681 ft / 208 m (AMSL)
32 DME ILF 110.90 MHz 18 nm / 33 km - - - 687 ft / 209 m (AMSL)

Popular Alternatives